sensor_id;sensor_type;location;lat;lon;timestamp;P1;durP1;ratioP1;P2;durP2;ratioP2
22778;SDS011;11556;51.194;3.800;2023-05-17T00:00:50;18.33;;;4.80;;
22778;SDS011;11556;51.194;3.800;2023-05-17T00:03:15;18.60;;;4.70;;
22778;SDS011;11556;51.194;3.800;2023-05-17T00:05:41;16.10;;;4.95;;
22778;SDS011;11556;51.194;3.800;2023-05-17T00:08:07;15.95;;;5.07;;
22778;SDS011;11556;51.194;3.800;2023-05-17T00:10:32;13.75;;;5.18;;
22778;SDS011;11556;51.194;3.800;2023-05-17T00:12:58;11.38;;;4.60;;
22778;SDS011;11556;51.194;3.800;2023-05-17T00:15:24;16.02;;;4.32;;
22778;SDS011;11556;51.194;3.800;2023-05-17T00:17:49;13.25;;;4.45;;
22778;SDS011;11556;51.194;3.800;2023-05-17T00:20:15;15.38;;;4.95;;
22778;SDS011;11556;51.194;3.800;2023-05-17T00:22:41;14.60;;;5.13;;
22778;SDS011;11556;51.194;3.800;2023-05-17T00:25:09;11.15;;;4.20;;
22778;SDS011;11556;51.194;3.800;2023-05-17T00:27:35;22.75;;;4.95;;
22778;SDS011;11556;51.194;3.800;2023-05-17T00:30:00;20.27;;;4.65;;
22778;SDS011;11556;51.194;3.800;2023-05-17T00:32:26;15.40;;;4.13;;
22778;SDS011;11556;51.194;3.800;2023-05-17T00:34:52;15.25;;;4.45;;
22778;SDS011;11556;51.194;3.800;2023-05-17T00:37:17;20.85;;;4.63;;
22778;SDS011;11556;51.194;3.800;2023-05-17T00:39:43;11.73;;;4.65;;
22778;SDS011;11556;51.194;3.800;2023-05-17T00:42:09;19.40;;;5.03;;
22778;SDS011;11556;51.194;3.800;2023-05-17T00:44:35;28.10;;;5.43;;
22778;SDS011;11556;51.194;3.800;2023-05-17T00:47:01;13.25;;;4.90;;
22778;SDS011;11556;51.194;3.800;2023-05-17T00:49:27;13.38;;;4.88;;
22778;SDS011;11556;51.194;3.800;2023-05-17T00:51:53;17.85;;;5.15;;
22778;SDS011;11556;51.194;3.800;2023-05-17T00:54:20;14.98;;;4.75;;
22778;SDS011;11556;51.194;3.800;2023-05-17T00:56:46;9.55;;;4.40;;
22778;SDS011;11556;51.194;3.800;2023-05-17T00:59:12;11.60;;;4.43;;
22778;SDS011;11556;51.194;3.800;2023-05-17T01:01:40;14.23;;;4.72;;
22778;SDS011;11556;51.194;3.800;2023-05-17T01:04:07;15.88;;;5.30;;
22778;SDS011;11556;51.194;3.800;2023-05-17T01:06:34;12.75;;;5.32;;
22778;SDS011;11556;51.194;3.800;2023-05-17T01:09:01;14.68;;;5.40;;
22778;SDS011;11556;51.194;3.800;2023-05-17T01:16:58;16.02;;;5.35;;
22778;SDS011;11556;51.194;3.800;2023-05-17T01:22:30;14.02;;;5.43;;
22778;SDS011;11556;51.194;3.800;2023-05-17T01:27:38;22.58;;;5.47;;
22778;SDS011;11556;51.194;3.800;2023-05-17T01:30:08;16.88;;;6.10;;
22778;SDS011;11556;51.194;3.800;2023-05-17T01:32:35;12.75;;;5.20;;
22778;SDS011;11556;51.194;3.800;2023-05-17T01:35:03;17.40;;;5.43;;
22778;SDS011;11556;51.194;3.800;2023-05-17T01:37:29;17.25;;;6.03;;
22778;SDS011;11556;51.194;3.800;2023-05-17T01:39:55;11.40;;;5.32;;
22778;SDS011;11556;51.194;3.800;2023-05-17T01:42:21;13.82;;;4.85;;
22778;SDS011;11556;51.194;3.800;2023-05-17T01:45:02;17.30;;;5.20;;
22778;SDS011;11556;51.194;3.800;2023-05-17T01:47:35;14.18;;;5.22;;
22778;SDS011;11556;51.194;3.800;2023-05-17T01:50:06;14.88;;;5.53;;
22778;SDS011;11556;51.194;3.800;2023-05-17T01:52:37;11.57;;;5.35;;
22778;SDS011;11556;51.194;3.800;2023-05-17T01:55:36;14.85;;;5.30;;
22778;SDS011;11556;51.194;3.800;2023-05-17T01:58:13;12.40;;;5.40;;
22778;SDS011;11556;51.194;3.800;2023-05-17T02:00:40;15.98;;;5.47;;
22778;SDS011;11556;51.194;3.800;2023-05-17T02:03:15;19.73;;;6.07;;
22778;SDS011;11556;51.194;3.800;2023-05-17T02:05:41;14.85;;;5.45;;
22778;SDS011;11556;51.194;3.800;2023-05-17T02:08:07;21.35;;;5.50;;
22778;SDS011;11556;51.194;3.800;2023-05-17T02:10:33;15.48;;;5.55;;
22778;SDS011;11556;51.194;3.800;2023-05-17T02:12:58;18.98;;;6.25;;
22778;SDS011;11556;51.194;3.800;2023-05-17T02:15:24;19.60;;;6.65;;
22778;SDS011;11556;51.194;3.800;2023-05-17T02:17:50;18.02;;;6.25;;
22778;SDS011;11556;51.194;3.800;2023-05-17T02:20:16;23.27;;;7.07;;
22778;SDS011;11556;51.194;3.800;2023-05-17T02:22:41;21.15;;;6.88;;
22778;SDS011;11556;51.194;3.800;2023-05-17T02:25:07;16.25;;;7.25;;
22778;SDS011;11556;51.194;3.800;2023-05-17T02:27:33;19.85;;;6.60;;
22778;SDS011;11556;51.194;3.800;2023-05-17T02:29:59;26.13;;;6.78;;
22778;SDS011;11556;51.194;3.800;2023-05-17T02:32:26;13.63;;;6.13;;
22778;SDS011;11556;51.194;3.800;2023-05-17T02:34:52;24.17;;;6.90;;
22778;SDS011;11556;51.194;3.800;2023-05-17T02:37:18;21.05;;;6.70;;
22778;SDS011;11556;51.194;3.800;2023-05-17T02:39:44;24.52;;;7.15;;
22778;SDS011;11556;51.194;3.800;2023-05-17T02:42:10;17.38;;;6.72;;
22778;SDS011;11556;51.194;3.800;2023-05-17T02:44:35;18.75;;;7.18;;
22778;SDS011;11556;51.194;3.800;2023-05-17T02:47:01;17.50;;;6.93;;
22778;SDS011;11556;51.194;3.800;2023-05-17T02:49:27;17.83;;;6.63;;
22778;SDS011;11556;51.194;3.800;2023-05-17T02:51:52;15.90;;;7.10;;
22778;SDS011;11556;51.194;3.800;2023-05-17T02:54:18;15.75;;;7.22;;
22778;SDS011;11556;51.194;3.800;2023-05-17T02:56:44;21.42;;;6.70;;
22778;SDS011;11556;51.194;3.800;2023-05-17T02:59:10;20.15;;;7.60;;
22778;SDS011;11556;51.194;3.800;2023-05-17T03:01:35;22.52;;;6.97;;
22778;SDS011;11556;51.194;3.800;2023-05-17T03:04:01;20.35;;;6.88;;
22778;SDS011;11556;51.194;3.800;2023-05-17T03:06:26;21.92;;;7.55;;
22778;SDS011;11556;51.194;3.800;2023-05-17T03:08:52;18.58;;;6.78;;
22778;SDS011;11556;51.194;3.800;2023-05-17T03:11:18;17.70;;;6.78;;
22778;SDS011;11556;51.194;3.800;2023-05-17T03:13:43;14.82;;;7.20;;
22778;SDS011;11556;51.194;3.800;2023-05-17T03:16:10;20.25;;;7.68;;
22778;SDS011;11556;51.194;3.800;2023-05-17T03:18:36;21.80;;;7.78;;
22778;SDS011;11556;51.194;3.800;2023-05-17T03:21:02;23.70;;;8.02;;
22778;SDS011;11556;51.194;3.800;2023-05-17T03:23:27;16.92;;;7.75;;
22778;SDS011;11556;51.194;3.800;2023-05-17T03:25:53;15.85;;;7.38;;
22778;SDS011;11556;51.194;3.800;2023-05-17T03:28:18;18.58;;;7.63;;
22778;SDS011;11556;51.194;3.800;2023-05-17T03:30:45;22.27;;;7.15;;
22778;SDS011;11556;51.194;3.800;2023-05-17T03:33:10;25.23;;;8.05;;
22778;SDS011;11556;51.194;3.800;2023-05-17T03:35:36;14.70;;;6.55;;
22778;SDS011;11556;51.194;3.800;2023-05-17T03:38:01;20.13;;;7.55;;
22778;SDS011;11556;51.194;3.800;2023-05-17T03:40:27;18.20;;;7.38;;
22778;SDS011;11556;51.194;3.800;2023-05-17T03:42:53;21.50;;;7.95;;
22778;SDS011;11556;51.194;3.800;2023-05-17T03:45:18;18.65;;;7.50;;
22778;SDS011;11556;51.194;3.800;2023-05-17T03:47:44;17.60;;;7.82;;
22778;SDS011;11556;51.194;3.800;2023-05-17T03:50:10;20.73;;;7.65;;
22778;SDS011;11556;51.194;3.800;2023-05-17T03:52:35;22.73;;;8.27;;
22778;SDS011;11556;51.194;3.800;2023-05-17T03:55:01;20.38;;;7.82;;
22778;SDS011;11556;51.194;3.800;2023-05-17T03:57:27;19.75;;;8.65;;
22778;SDS011;11556;51.194;3.800;2023-05-17T03:59:53;17.42;;;7.88;;
22778;SDS011;11556;51.194;3.800;2023-05-17T04:02:19;24.60;;;8.27;;
22778;SDS011;11556;51.194;3.800;2023-05-17T04:04:48;18.40;;;7.82;;
22778;SDS011;11556;51.194;3.800;2023-05-17T04:07:14;21.75;;;7.93;;
22778;SDS011;11556;51.194;3.800;2023-05-17T04:09:40;22.67;;;8.27;;
22778;SDS011;11556;51.194;3.800;2023-05-17T04:12:06;23.75;;;7.65;;
22778;SDS011;11556;51.194;3.800;2023-05-17T04:14:33;21.88;;;8.27;;
22778;SDS011;11556;51.194;3.800;2023-05-17T04:16:58;18.33;;;7.75;;
22778;SDS011;11556;51.194;3.800;2023-05-17T04:19:24;18.40;;;7.80;;
22778;SDS011;11556;51.194;3.800;2023-05-17T04:21:49;16.00;;;7.13;;
22778;SDS011;11556;51.194;3.800;2023-05-17T04:24:16;15.38;;;6.53;;
22778;SDS011;11556;51.194;3.800;2023-05-17T04:26:41;21.08;;;7.82;;
22778;SDS011;11556;51.194;3.800;2023-05-17T04:29:08;20.42;;;7.30;;
22778;SDS011;11556;51.194;3.800;2023-05-17T04:31:34;19.15;;;8.02;;
22778;SDS011;11556;51.194;3.800;2023-05-17T04:33:59;22.17;;;8.18;;
22778;SDS011;11556;51.194;3.800;2023-05-17T04:36:25;27.33;;;8.25;;
22778;SDS011;11556;51.194;3.800;2023-05-17T04:38:51;19.05;;;7.60;;
22778;SDS011;11556;51.194;3.800;2023-05-17T04:41:17;16.70;;;7.25;;
22778;SDS011;11556;51.194;3.800;2023-05-17T04:43:42;18.92;;;8.45;;
22778;SDS011;11556;51.194;3.800;2023-05-17T04:46:08;18.23;;;7.57;;
22778;SDS011;11556;51.194;3.800;2023-05-17T04:48:34;20.17;;;7.90;;
22778;SDS011;11556;51.194;3.800;2023-05-17T04:51:00;21.27;;;7.97;;
22778;SDS011;11556;51.194;3.800;2023-05-17T04:53:28;20.02;;;8.07;;
22778;SDS011;11556;51.194;3.800;2023-05-17T04:55:53;21.00;;;8.25;;
22778;SDS011;11556;51.194;3.800;2023-05-17T04:58:19;16.17;;;7.40;;
22778;SDS011;11556;51.194;3.800;2023-05-17T05:00:45;19.13;;;7.78;;
22778;SDS011;11556;51.194;3.800;2023-05-17T05:03:10;24.50;;;7.63;;
22778;SDS011;11556;51.194;3.800;2023-05-17T05:05:36;16.45;;;6.93;;
22778;SDS011;11556;51.194;3.800;2023-05-17T05:08:01;26.05;;;7.93;;
22778;SDS011;11556;51.194;3.800;2023-05-17T05:10:27;22.05;;;7.60;;
22778;SDS011;11556;51.194;3.800;2023-05-17T05:12:53;18.70;;;7.55;;
22778;SDS011;11556;51.194;3.800;2023-05-17T05:15:19;23.67;;;11.27;;
22778;SDS011;11556;51.194;3.800;2023-05-17T05:17:44;24.60;;;11.45;;
22778;SDS011;11556;51.194;3.800;2023-05-17T05:20:12;21.67;;;8.63;;
22778;SDS011;11556;51.194;3.800;2023-05-17T05:22:37;17.40;;;6.63;;
22778;SDS011;11556;51.194;3.800;2023-05-17T05:25:03;18.58;;;6.80;;
22778;SDS011;11556;51.194;3.800;2023-05-17T05:27:29;22.67;;;7.32;;
22778;SDS011;11556;51.194;3.800;2023-05-17T05:29:55;21.45;;;6.75;;
22778;SDS011;11556;51.194;3.800;2023-05-17T05:32:20;15.77;;;7.07;;
22778;SDS011;11556;51.194;3.800;2023-05-17T05:34:46;14.30;;;5.60;;
22778;SDS011;11556;51.194;3.800;2023-05-17T05:37:12;9.55;;;5.40;;
22778;SDS011;11556;51.194;3.800;2023-05-17T05:39:37;11.48;;;5.10;;
22778;SDS011;11556;51.194;3.800;2023-05-17T05:42:03;16.50;;;4.78;;
22778;SDS011;11556;51.194;3.800;2023-05-17T05:44:29;10.32;;;4.60;;
22778;SDS011;11556;51.194;3.800;2023-05-17T05:46:55;10.68;;;4.57;;
22778;SDS011;11556;51.194;3.800;2023-05-17T05:49:21;12.60;;;4.82;;
22778;SDS011;11556;51.194;3.800;2023-05-17T05:51:46;12.35;;;4.75;;
22778;SDS011;11556;51.194;3.800;2023-05-17T05:54:12;15.02;;;4.25;;
22778;SDS011;11556;51.194;3.800;2023-05-17T05:56:38;12.45;;;4.60;;
22778;SDS011;11556;51.194;3.800;2023-05-17T05:59:04;12.38;;;4.55;;
22778;SDS011;11556;51.194;3.800;2023-05-17T06:01:29;11.15;;;4.65;;
22778;SDS011;11556;51.194;3.800;2023-05-17T06:03:55;16.75;;;4.53;;
22778;SDS011;11556;51.194;3.800;2023-05-17T06:06:21;10.68;;;4.20;;
22778;SDS011;11556;51.194;3.800;2023-05-17T06:08:47;8.90;;;3.85;;
22778;SDS011;11556;51.194;3.800;2023-05-17T06:11:12;10.15;;;4.30;;
22778;SDS011;11556;51.194;3.800;2023-05-17T06:13:38;12.35;;;4.25;;
22778;SDS011;11556;51.194;3.800;2023-05-17T06:16:04;13.30;;;4.03;;
22778;SDS011;11556;51.194;3.800;2023-05-17T06:18:30;9.77;;;3.67;;
22778;SDS011;11556;51.194;3.800;2023-05-17T06:20:56;8.10;;;3.92;;
22778;SDS011;11556;51.194;3.800;2023-05-17T06:23:22;10.25;;;3.67;;
22778;SDS011;11556;51.194;3.800;2023-05-17T06:25:48;8.98;;;3.75;;
22778;SDS011;11556;51.194;3.800;2023-05-17T06:28:14;12.05;;;3.83;;
22778;SDS011;11556;51.194;3.800;2023-05-17T06:30:41;17.88;;;4.57;;
22778;SDS011;11556;51.194;3.800;2023-05-17T06:33:06;10.57;;;3.88;;
22778;SDS011;11556;51.194;3.800;2023-05-17T06:35:33;9.52;;;3.55;;
22778;SDS011;11556;51.194;3.800;2023-05-17T06:37:59;12.63;;;4.10;;
22778;SDS011;11556;51.194;3.800;2023-05-17T06:40:24;6.75;;;3.17;;
22778;SDS011;11556;51.194;3.800;2023-05-17T06:42:50;8.95;;;3.38;;
22778;SDS011;11556;51.194;3.800;2023-05-17T06:45:16;10.07;;;3.45;;
22778;SDS011;11556;51.194;3.800;2023-05-17T06:47:41;9.20;;;3.50;;
22778;SDS011;11556;51.194;3.800;2023-05-17T06:50:07;9.10;;;3.35;;
22778;SDS011;11556;51.194;3.800;2023-05-17T06:52:33;9.27;;;3.45;;
22778;SDS011;11556;51.194;3.800;2023-05-17T06:54:59;7.68;;;2.97;;
22778;SDS011;11556;51.194;3.800;2023-05-17T06:57:25;9.25;;;3.22;;
22778;SDS011;11556;51.194;3.800;2023-05-17T06:59:51;10.82;;;3.38;;
22778;SDS011;11556;51.194;3.800;2023-05-17T07:02:17;11.88;;;3.70;;
22778;SDS011;11556;51.194;3.800;2023-05-17T07:04:43;13.80;;;3.67;;
22778;SDS011;11556;51.194;3.800;2023-05-17T07:07:09;8.85;;;3.30;;
22778;SDS011;11556;51.194;3.800;2023-05-17T07:09:35;12.00;;;3.70;;
22778;SDS011;11556;51.194;3.800;2023-05-17T07:12:01;7.82;;;3.55;;
22778;SDS011;11556;51.194;3.800;2023-05-17T07:14:27;11.05;;;3.35;;
22778;SDS011;11556;51.194;3.800;2023-05-17T07:16:53;10.48;;;2.97;;
22778;SDS011;11556;51.194;3.800;2023-05-17T07:19:18;10.80;;;2.85;;
22778;SDS011;11556;51.194;3.800;2023-05-17T07:21:44;9.48;;;2.90;;
22778;SDS011;11556;51.194;3.800;2023-05-17T07:24:10;10.98;;;3.15;;
22778;SDS011;11556;51.194;3.800;2023-05-17T07:26:36;9.95;;;2.83;;
22778;SDS011;11556;51.194;3.800;2023-05-17T07:29:02;8.65;;;2.65;;
22778;SDS011;11556;51.194;3.800;2023-05-17T07:31:27;11.30;;;3.25;;
22778;SDS011;11556;51.194;3.800;2023-05-17T07:33:53;6.93;;;2.40;;
22778;SDS011;11556;51.194;3.800;2023-05-17T07:36:19;7.38;;;2.75;;
22778;SDS011;11556;51.194;3.800;2023-05-17T07:38:44;8.65;;;2.47;;
22778;SDS011;11556;51.194;3.800;2023-05-17T07:41:10;10.40;;;2.70;;
22778;SDS011;11556;51.194;3.800;2023-05-17T07:43:40;9.10;;;2.40;;
22778;SDS011;11556;51.194;3.800;2023-05-17T07:46:06;8.43;;;2.78;;
22778;SDS011;11556;51.194;3.800;2023-05-17T07:48:32;11.85;;;2.53;;
22778;SDS011;11556;51.194;3.800;2023-05-17T07:50:58;4.25;;;2.28;;
22778;SDS011;11556;51.194;3.800;2023-05-17T07:53:23;8.50;;;2.70;;
22778;SDS011;11556;51.194;3.800;2023-05-17T07:55:49;8.50;;;2.70;;
22778;SDS011;11556;51.194;3.800;2023-05-17T07:58:16;11.27;;;2.40;;
22778;SDS011;11556;51.194;3.800;2023-05-17T08:00:41;7.70;;;2.55;;
22778;SDS011;11556;51.194;3.800;2023-05-17T08:03:07;6.38;;;2.30;;
22778;SDS011;11556;51.194;3.800;2023-05-17T08:05:33;4.75;;;1.98;;
22778;SDS011;11556;51.194;3.800;2023-05-17T08:07:58;6.05;;;2.13;;
22778;SDS011;11556;51.194;3.800;2023-05-17T08:10:25;6.55;;;2.60;;
22778;SDS011;11556;51.194;3.800;2023-05-17T08:12:53;7.82;;;2.60;;
22778;SDS011;11556;51.194;3.800;2023-05-17T08:15:20;6.53;;;2.08;;
22778;SDS011;11556;51.194;3.800;2023-05-17T08:17:46;5.50;;;2.03;;
22778;SDS011;11556;51.194;3.800;2023-05-17T08:20:11;6.40;;;2.20;;
22778;SDS011;11556;51.194;3.800;2023-05-17T08:22:37;7.75;;;2.13;;
22778;SDS011;11556;51.194;3.800;2023-05-17T08:25:03;7.25;;;2.03;;
22778;SDS011;11556;51.194;3.800;2023-05-17T08:27:29;6.53;;;1.63;;
22778;SDS011;11556;51.194;3.800;2023-05-17T08:29:57;7.18;;;1.70;;
22778;SDS011;11556;51.194;3.800;2023-05-17T08:32:23;4.75;;;1.90;;
22778;SDS011;11556;51.194;3.800;2023-05-17T08:34:50;7.22;;;2.10;;
22778;SDS011;11556;51.194;3.800;2023-05-17T08:37:16;4.93;;;2.00;;
22778;SDS011;11556;51.194;3.800;2023-05-17T08:39:42;5.47;;;2.05;;
22778;SDS011;11556;51.194;3.800;2023-05-17T08:42:08;12.00;;;2.13;;
22778;SDS011;11556;51.194;3.800;2023-05-17T08:44:34;6.20;;;2.33;;
22778;SDS011;11556;51.194;3.800;2023-05-17T08:47:00;9.25;;;2.20;;
22778;SDS011;11556;51.194;3.800;2023-05-17T08:49:27;6.25;;;2.13;;
22778;SDS011;11556;51.194;3.800;2023-05-17T08:51:58;3.47;;;1.10;;
22778;SDS011;11556;51.194;3.800;2023-05-17T08:54:24;6.65;;;1.30;;
22778;SDS011;11556;51.194;3.800;2023-05-17T08:56:52;5.45;;;1.10;;
22778;SDS011;11556;51.194;3.800;2023-05-17T08:59:19;6.57;;;1.35;;
22778;SDS011;11556;51.194;3.800;2023-05-17T09:01:48;3.25;;;1.05;;
22778;SDS011;11556;51.194;3.800;2023-05-17T09:04:18;3.58;;;1.35;;
22778;SDS011;11556;51.194;3.800;2023-05-17T09:06:44;7.70;;;1.63;;
22778;SDS011;11556;51.194;3.800;2023-05-17T09:09:10;5.47;;;1.20;;
22778;SDS011;11556;51.194;3.800;2023-05-17T09:11:36;3.72;;;1.20;;
22778;SDS011;11556;51.194;3.800;2023-05-17T09:14:05;5.82;;;1.50;;
22778;SDS011;11556;51.194;3.800;2023-05-17T09:16:32;5.40;;;1.60;;
22778;SDS011;11556;51.194;3.800;2023-05-17T09:18:59;4.57;;;1.20;;
22778;SDS011;11556;51.194;3.800;2023-05-17T09:21:26;7.68;;;1.27;;
22778;SDS011;11556;51.194;3.800;2023-05-17T09:23:53;5.13;;;1.42;;
22778;SDS011;11556;51.194;3.800;2023-05-17T09:26:19;3.10;;;1.10;;
22778;SDS011;11556;51.194;3.800;2023-05-17T09:28:46;6.85;;;1.15;;
22778;SDS011;11556;51.194;3.800;2023-05-17T09:31:14;5.55;;;1.20;;
22778;SDS011;11556;51.194;3.800;2023-05-17T09:36:17;6.45;;;1.70;;
22778;SDS011;11556;51.194;3.800;2023-05-17T09:39:06;6.65;;;1.52;;
22778;SDS011;11556;51.194;3.800;2023-05-17T09:41:41;4.93;;;1.50;;
22778;SDS011;11556;51.194;3.800;2023-05-17T09:44:11;10.52;;;2.65;;
22778;SDS011;11556;51.194;3.800;2023-05-17T09:46:41;9.35;;;1.45;;
22778;SDS011;11556;51.194;3.800;2023-05-17T09:49:09;10.57;;;1.70;;
22778;SDS011;11556;51.194;3.800;2023-05-17T09:51:38;10.82;;;1.67;;
22778;SDS011;11556;51.194;3.800;2023-05-17T09:54:06;7.03;;;1.25;;
22778;SDS011;11556;51.194;3.800;2023-05-17T09:56:32;6.22;;;1.70;;
22778;SDS011;11556;51.194;3.800;2023-05-17T09:59:17;7.20;;;1.83;;
22778;SDS011;11556;51.194;3.800;2023-05-17T10:01:44;9.10;;;1.70;;
22778;SDS011;11556;51.194;3.800;2023-05-17T10:04:12;8.00;;;1.75;;
22778;SDS011;11556;51.194;3.800;2023-05-17T10:06:38;6.78;;;1.52;;
22778;SDS011;11556;51.194;3.800;2023-05-17T10:09:05;7.38;;;2.08;;
22778;SDS011;11556;51.194;3.800;2023-05-17T10:11:34;7.53;;;1.58;;
22778;SDS011;11556;51.194;3.800;2023-05-17T10:17:01;5.15;;;1.50;;
22778;SDS011;11556;51.194;3.800;2023-05-17T10:19:27;6.85;;;1.50;;
22778;SDS011;11556;51.194;3.800;2023-05-17T10:21:52;6.55;;;1.30;;
22778;SDS011;11556;51.194;3.800;2023-05-17T10:24:21;6.25;;;1.52;;
22778;SDS011;11556;51.194;3.800;2023-05-17T10:26:51;4.10;;;1.30;;
22778;SDS011;11556;51.194;3.800;2023-05-17T10:29:17;7.68;;;1.55;;
22778;SDS011;11556;51.194;3.800;2023-05-17T10:31:46;5.22;;;1.20;;
22778;SDS011;11556;51.194;3.800;2023-05-17T10:34:15;6.70;;;1.40;;
22778;SDS011;11556;51.194;3.800;2023-05-17T10:36:45;8.23;;;1.67;;
22778;SDS011;11556;51.194;3.800;2023-05-17T10:39:12;6.10;;;1.88;;
22778;SDS011;11556;51.194;3.800;2023-05-17T10:41:39;5.30;;;1.58;;
22778;SDS011;11556;51.194;3.800;2023-05-17T10:44:08;5.88;;;1.60;;
22778;SDS011;11556;51.194;3.800;2023-05-17T10:46:37;8.15;;;1.90;;
22778;SDS011;11556;51.194;3.800;2023-05-17T10:49:03;7.25;;;1.80;;
22778;SDS011;11556;51.194;3.800;2023-05-17T10:51:30;5.95;;;1.70;;
22778;SDS011;11556;51.194;3.800;2023-05-17T10:54:09;4.18;;;1.38;;
22778;SDS011;11556;51.194;3.800;2023-05-17T10:56:51;8.82;;;1.73;;
22778;SDS011;11556;51.194;3.800;2023-05-17T10:59:24;8.57;;;1.70;;
22778;SDS011;11556;51.194;3.800;2023-05-17T11:04:34;5.75;;;1.45;;
22778;SDS011;11556;51.194;3.800;2023-05-17T11:09:43;5.70;;;1.20;;
22778;SDS011;11556;51.194;3.800;2023-05-17T11:12:11;7.45;;;1.95;;
22778;SDS011;11556;51.194;3.800;2023-05-17T11:17:32;4.97;;;1.67;;
22778;SDS011;11556;51.194;3.800;2023-05-17T11:20:00;5.95;;;1.80;;
22778;SDS011;11556;51.194;3.800;2023-05-17T11:22:29;6.35;;;1.10;;
22778;SDS011;11556;51.194;3.800;2023-05-17T11:25:01;8.52;;;1.60;;
22778;SDS011;11556;51.194;3.800;2023-05-17T11:27:36;8.20;;;1.60;;
22778;SDS011;11556;51.194;3.800;2023-05-17T11:30:07;5.07;;;1.38;;
22778;SDS011;11556;51.194;3.800;2023-05-17T11:32:53;3.67;;;1.08;;
22778;SDS011;11556;51.194;3.800;2023-05-17T11:35:26;7.40;;;1.98;;
22778;SDS011;11556;51.194;3.800;2023-05-17T11:38:18;4.75;;;1.35;;
22778;SDS011;11556;51.194;3.800;2023-05-17T11:40:57;6.22;;;1.65;;
22778;SDS011;11556;51.194;3.800;2023-05-17T11:43:40;7.10;;;1.33;;
22778;SDS011;11556;51.194;3.800;2023-05-17T11:46:17;5.15;;;1.77;;
22778;SDS011;11556;51.194;3.800;2023-05-17T11:48:45;6.82;;;1.45;;
22778;SDS011;11556;51.194;3.800;2023-05-17T11:51:12;7.78;;;1.83;;
22778;SDS011;11556;51.194;3.800;2023-05-17T11:53:40;9.10;;;1.58;;
22778;SDS011;11556;51.194;3.800;2023-05-17T11:56:07;8.27;;;1.45;;
22778;SDS011;11556;51.194;3.800;2023-05-17T11:58:33;7.38;;;1.48;;
22778;SDS011;11556;51.194;3.800;2023-05-17T12:00:59;6.65;;;1.88;;
22778;SDS011;11556;51.194;3.800;2023-05-17T12:03:28;6.97;;;1.70;;
22778;SDS011;11556;51.194;3.800;2023-05-17T12:06:05;7.72;;;1.58;;
22778;SDS011;11556;51.194;3.800;2023-05-17T12:08:39;8.15;;;1.50;;
22778;SDS011;11556;51.194;3.800;2023-05-17T12:11:13;7.75;;;1.55;;
22778;SDS011;11556;51.194;3.800;2023-05-17T12:13:41;7.93;;;1.63;;
22778;SDS011;11556;51.194;3.800;2023-05-17T12:16:11;5.93;;;1.45;;
22778;SDS011;11556;51.194;3.800;2023-05-17T12:18:42;6.95;;;1.60;;
22778;SDS011;11556;51.194;3.800;2023-05-17T12:21:11;7.72;;;1.63;;
22778;SDS011;11556;51.194;3.800;2023-05-17T12:23:41;4.75;;;1.40;;
22778;SDS011;11556;51.194;3.800;2023-05-17T12:26:13;6.28;;;1.27;;
22778;SDS011;11556;51.194;3.800;2023-05-17T12:28:40;7.57;;;1.50;;
22778;SDS011;11556;51.194;3.800;2023-05-17T12:31:31;8.43;;;1.45;;
22778;SDS011;11556;51.194;3.800;2023-05-17T12:34:00;4.63;;;1.05;;
22778;SDS011;11556;51.194;3.800;2023-05-17T12:36:29;5.68;;;1.23;;
22778;SDS011;11556;51.194;3.800;2023-05-17T12:38:57;4.75;;;1.25;;
22778;SDS011;11556;51.194;3.800;2023-05-17T12:41:23;7.82;;;1.38;;
22778;SDS011;11556;51.194;3.800;2023-05-17T12:43:50;6.40;;;1.27;;
22778;SDS011;11556;51.194;3.800;2023-05-17T12:46:17;6.55;;;1.30;;
22778;SDS011;11556;51.194;3.800;2023-05-17T12:48:46;3.58;;;1.33;;
22778;SDS011;11556;51.194;3.800;2023-05-17T12:51:14;5.63;;;1.50;;
22778;SDS011;11556;51.194;3.800;2023-05-17T12:54:02;7.88;;;1.13;;
22778;SDS011;11556;51.194;3.800;2023-05-17T12:56:27;3.60;;;1.10;;
22778;SDS011;11556;51.194;3.800;2023-05-17T12:59:03;5.90;;;1.20;;
22778;SDS011;11556;51.194;3.800;2023-05-17T13:04:11;5.45;;;1.10;;
22778;SDS011;11556;51.194;3.800;2023-05-17T13:06:51;5.28;;;1.20;;
22778;SDS011;11556;51.194;3.800;2023-05-17T13:09:21;4.90;;;1.35;;
22778;SDS011;11556;51.194;3.800;2023-05-17T13:11:49;3.45;;;1.30;;
22778;SDS011;11556;51.194;3.800;2023-05-17T13:14:31;4.82;;;1.45;;
22778;SDS011;11556;51.194;3.800;2023-05-17T13:17:05;7.45;;;1.27;;
22778;SDS011;11556;51.194;3.800;2023-05-17T13:19:52;6.05;;;1.17;;
22778;SDS011;11556;51.194;3.800;2023-05-17T13:22:18;4.78;;;1.25;;
22778;SDS011;11556;51.194;3.800;2023-05-17T13:24:44;6.80;;;1.00;;
22778;SDS011;11556;51.194;3.800;2023-05-17T13:27:10;3.65;;;1.30;;
22778;SDS011;11556;51.194;3.800;2023-05-17T13:29:37;6.18;;;1.35;;
22778;SDS011;11556;51.194;3.800;2023-05-17T13:32:05;6.25;;;1.20;;
22778;SDS011;11556;51.194;3.800;2023-05-17T13:34:32;6.93;;;1.33;;
22778;SDS011;11556;51.194;3.800;2023-05-17T13:36:59;6.55;;;1.30;;
22778;SDS011;11556;51.194;3.800;2023-05-17T13:39:25;6.20;;;1.13;;
22778;SDS011;11556;51.194;3.800;2023-05-17T13:41:51;4.63;;;1.13;;
22778;SDS011;11556;51.194;3.800;2023-05-17T13:44:16;5.68;;;1.30;;
22778;SDS011;11556;51.194;3.800;2023-05-17T13:46:42;5.25;;;1.27;;
22778;SDS011;11556;51.194;3.800;2023-05-17T13:49:07;5.75;;;1.30;;
22778;SDS011;11556;51.194;3.800;2023-05-17T13:51:33;5.80;;;1.08;;
22778;SDS011;11556;51.194;3.800;2023-05-17T13:54:01;5.80;;;1.08;;
22778;SDS011;11556;51.194;3.800;2023-05-17T13:56:27;7.70;;;1.75;;
22778;SDS011;11556;51.194;3.800;2023-05-17T13:58:52;6.03;;;1.27;;
22778;SDS011;11556;51.194;3.800;2023-05-17T14:01:18;3.70;;;1.33;;
22778;SDS011;11556;51.194;3.800;2023-05-17T14:03:44;3.17;;;1.10;;
22778;SDS011;11556;51.194;3.800;2023-05-17T14:06:10;3.03;;;1.10;;
22778;SDS011;11556;51.194;3.800;2023-05-17T14:08:35;5.85;;;1.35;;
22778;SDS011;11556;51.194;3.800;2023-05-17T14:11:01;4.32;;;1.23;;
22778;SDS011;11556;51.194;3.800;2023-05-17T14:13:27;5.60;;;1.23;;
22778;SDS011;11556;51.194;3.800;2023-05-17T14:15:53;4.55;;;1.33;;
22778;SDS011;11556;51.194;3.800;2023-05-17T14:18:18;12.13;;;1.50;;
22778;SDS011;11556;51.194;3.800;2023-05-17T14:20:44;6.00;;;1.20;;
22778;SDS011;11556;51.194;3.800;2023-05-17T14:23:11;6.00;;;1.40;;
22778;SDS011;11556;51.194;3.800;2023-05-17T14:25:36;3.42;;;1.17;;
22778;SDS011;11556;51.194;3.800;2023-05-17T14:28:02;8.02;;;1.20;;
22778;SDS011;11556;51.194;3.800;2023-05-17T14:30:28;5.03;;;1.45;;
22778;SDS011;11556;51.194;3.800;2023-05-17T14:32:54;3.40;;;1.27;;
22778;SDS011;11556;51.194;3.800;2023-05-17T14:35:20;2.70;;;1.30;;
22778;SDS011;11556;51.194;3.800;2023-05-17T14:37:46;6.97;;;1.77;;
22778;SDS011;11556;51.194;3.800;2023-05-17T14:40:11;5.15;;;1.20;;
22778;SDS011;11556;51.194;3.800;2023-05-17T14:42:37;4.45;;;1.63;;
22778;SDS011;11556;51.194;3.800;2023-05-17T14:45:04;5.13;;;1.33;;
22778;SDS011;11556;51.194;3.800;2023-05-17T14:47:30;9.82;;;1.50;;
22778;SDS011;11556;51.194;3.800;2023-05-17T14:49:56;4.47;;;1.33;;
22778;SDS011;11556;51.194;3.800;2023-05-17T14:52:22;2.85;;;1.13;;
22778;SDS011;11556;51.194;3.800;2023-05-17T14:54:47;6.70;;;1.20;;
22778;SDS011;11556;51.194;3.800;2023-05-17T14:57:13;5.05;;;1.10;;
22778;SDS011;11556;51.194;3.800;2023-05-17T14:59:39;4.93;;;1.02;;
22778;SDS011;11556;51.194;3.800;2023-05-17T15:02:05;5.28;;;1.50;;
22778;SDS011;11556;51.194;3.800;2023-05-17T15:04:31;5.57;;;1.35;;
22778;SDS011;11556;51.194;3.800;2023-05-17T15:06:57;6.88;;;1.48;;
22778;SDS011;11556;51.194;3.800;2023-05-17T15:09:23;4.95;;;1.48;;